Time;durP1;ratioP1;P1;durP2;ratioP2;P2;SDS_P1;SDS_P2;PMS_P1;PMS_P2;Temp;Humidity;BMP_temperature;BMP_pressure;BME280_temperature;BME280_humidity;BME280_pressure;Samples;Min_cycle;Max_cycle;Signal;HPM_P1;HPM_P2
2022/01/07 00:00:13;;;;;;;23.88;14.15;;;;;;;0.36;78.48;99922.53;345344;28;1802;-67
2022/01/07 00:00:32;;;;;;;27.38;13.82;;;;;;;0.38;79.34;99920.84;344847;28;1043;-67
2022/01/07 00:00:47;;;;;;;27.17;13.75;;;;;;;0.39;78.78;99927.69;344692;28;2084;-70
2022/01/07 00:01:03;;;;;;;36.33;15.00;;;;;;;0.41;78.61;99928.56;343972;28;1567;-67
2022/01/07 00:01:16;;;;;;;33.58;15.05;;;;;;;0.37;78.87;99925.09;343954;28;2299;-69
2022/01/07 00:01:28;;;;;;;27.48;14.70;;;;;;;0.38;78.58;99926.84;343025;28;2017;-68
2022/01/07 00:01:40;;;;;;;25.80;13.77;;;;;;;0.38;78.48;99926.84;342336;28;1100;-67
2022/01/07 00:01:53;;;;;;;27.38;13.75;;;;;;;0.31;78.58;99929.28;342218;28;1782;-68
2022/01/07 00:02:06;;;;;;;29.20;13.90;;;;;;;0.34;78.56;99926.75;343368;28;1798;-67
2022/01/07 00:02:18;;;;;;;26.85;14.02;;;;;;;0.31;79.00;99931.84;342970;28;1071;-67
2022/01/07 00:02:30;;;;;;;27.58;14.32;;;;;;;0.34;79.01;99925.09;343792;28;1112;-68
2022/01/07 00:02:48;;;;;;;27.67;14.45;;;;;;;0.35;78.63;99934.44;342848;28;1848;-67
2022/01/07 00:03:01;;;;;;;27.02;14.32;;;;;;;0.37;78.69;99927.66;343709;28;1360;-68
2022/01/07 00:03:15;;;;;;;26.25;13.88;;;;;;;0.38;78.34;99928.50;341750;28;3276;-70
2022/01/07 00:03:28;;;;;;;26.55;13.75;;;;;;;0.36;78.71;99928.50;343108;28;4771;-67
2022/01/07 00:03:40;;;;;;;28.45;14.38;;;;;;;0.41;79.10;99935.38;343544;28;1028;-68
2022/01/07 00:03:52;;;;;;;27.48;14.68;;;;;;;0.41;78.64;99930.28;344238;28;2100;-67
2022/01/07 00:04:04;;;;;;;26.60;14.15;;;;;;;0.39;78.90;99933.66;344336;28;1891;-67
2022/01/07 00:04:17;;;;;;;24.15;13.02;;;;;;;0.39;79.41;99931.09;345296;28;1085;-70
2022/01/07 00:04:31;;;;;;;28.65;13.43;;;;;;;0.42;79.43;99931.97;344918;28;1165;-67
2022/01/07 00:04:43;;;;;;;30.85;14.43;;;;;;;0.41;78.84;99931.13;344901;28;925;-67
2022/01/07 00:04:55;;;;;;;29.35;13.80;;;;;;;0.39;79.33;99928.53;345076;28;1074;-67
2022/01/07 00:05:08;;;;;;;29.95;13.18;;;;;;;0.37;78.87;99930.22;343711;28;1762;-67
2022/01/07 00:05:21;;;;;;;28.33;13.18;;;;;;;0.38;79.82;99929.41;344692;28;4907;-68
2022/01/07 00:05:33;;;;;;;28.15;14.05;;;;;;;0.39;79.64;99933.66;343704;28;2034;-69
2022/01/07 00:05:51;;;;;;;27.35;13.93;;;;;;;0.38;79.69;99931.94;344718;28;1522;-67
2022/01/07 00:06:03;;;;;;;26.20;13.15;;;;;;;0.35;79.94;99937.00;344928;28;1572;-67
2022/01/07 00:06:15;;;;;;;29.27;13.38;;;;;;;0.33;79.85;99928.47;345227;28;1383;-67
2022/01/07 00:06:27;;;;;;;30.95;14.07;;;;;;;0.35;79.42;99937.00;345150;28;1106;-67
2022/01/07 00:06:39;;;;;;;31.52;15.27;;;;;;;0.34;79.81;99935.31;345296;28;985;-69
2022/01/07 00:06:52;;;;;;;28.88;15.15;;;;;;;0.33;79.29;99933.56;343623;28;1229;-67
2022/01/07 00:07:04;;;;;;;27.70;14.60;;;;;;;0.35;80.09;99931.91;343093;28;1690;-68
2022/01/07 00:07:16;;;;;;;28.05;14.65;;;;;;;0.36;79.01;99931.06;343712;28;1054;-67
2022/01/07 00:07:28;;;;;;;27.83;15.02;;;;;;;0.38;79.57;99931.06;343678;28;1150;-66
2022/01/07 00:07:41;;;;;;;27.85;14.73;;;;;;;0.39;79.24;99933.66;343615;28;1180;-67
2022/01/07 00:07:53;;;;;;;26.88;14.10;;;;;;;0.42;79.11;99937.09;343757;28;1233;-67
2022/01/07 00:08:05;;;;;;;26.50;14.35;;;;;;;0.42;79.18;99931.97;343467;28;1655;-67
2022/01/07 00:08:18;;;;;;;25.25;14.73;;;;;;;0.43;79.44;99929.44;343703;28;1341;-67
2022/01/07 00:08:30;;;;;;;26.15;13.77;;;;;;;0.38;79.65;99931.06;343964;28;737;-67
2022/01/07 00:08:42;;;;;;;26.27;13.25;;;;;;;0.38;79.15;99931.94;343752;28;1083;-68
2022/01/07 00:08:54;;;;;;;27.02;13.85;;;;;;;0.39;79.67;99938.78;343603;28;2233;-69
2022/01/07 00:09:06;;;;;;;27.13;14.43;;;;;;;0.41;79.36;99936.25;344699;28;2045;-68
2022/01/07 00:09:19;;;;;;;27.77;14.45;;;;;;;0.38;79.09;99929.41;344073;28;4280;-70
2022/01/07 00:09:31;;;;;;;27.52;14.20;;;;;;;0.37;78.85;99935.34;343803;28;1231;-68
2022/01/07 00:09:43;;;;;;;27.35;14.00;;;;;;;0.38;79.59;99937.06;343652;28;1297;-67
2022/01/07 00:09:55;;;;;;;28.77;14.63;;;;;;;0.39;79.44;99933.66;344631;28;2139;-68
2022/01/07 00:10:10;;;;;;;29.10;14.98;;;;;;;0.40;79.23;99934.50;344671;28;2082;-67
2022/01/07 00:10:22;;;;;;;26.40;14.77;;;;;;;0.42;79.37;99931.97;345018;28;1235;-68
2022/01/07 00:10:34;;;;;;;25.27;14.52;;;;;;;0.43;79.31;99933.72;345101;28;1022;-68
2022/01/07 00:10:46;;;;;;;25.40;14.60;;;;;;;0.45;79.57;99937.16;343839;28;1818;-67
2022/01/07 00:11:01;;;;;;;28.15;15.18;;;;;;;0.46;79.45;99934.59;341754;28;1807;-69
2022/01/07 00:11:13;;;;;;;28.85;15.07;;;;;;;0.46;79.11;99934.59;342849;28;1190;-67
2022/01/07 00:11:25;;;;;;;26.98;14.65;;;;;;;0.47;79.14;99930.34;342469;28;1114;-68
2022/01/07 00:11:37;;;;;;;26.10;14.07;;;;;;;0.50;79.08;99930.38;342290;28;1417;-67
2022/01/07 00:11:49;;;;;;;28.42;14.57;;;;;;;0.51;79.49;99934.66;342350;28;1296;-67
2022/01/07 00:12:03;;;;;;;30.42;14.90;;;;;;;0.54;78.62;99937.25;343229;28;1529;-67
2022/01/07 00:12:21;;;;;;;30.00;14.60;;;;;;;0.55;79.03;99938.97;343460;28;1066;-68
2022/01/07 00:12:33;;;;;;;30.20;14.55;;;;;;;0.54;78.98;99938.13;342882;28;2282;-67
2022/01/07 00:12:45;;;;;;;28.55;14.55;;;;;;;0.57;78.89;99934.75;342957;28;1853;-67
2022/01/07 00:13:02;;;;;;;27.60;14.73;;;;;;;0.51;78.65;99929.53;344216;28;1640;-67
2022/01/07 00:13:14;;;;;;;28.83;14.55;;;;;;;0.50;78.45;99935.50;345159;28;1184;-67
2022/01/07 00:13:26;;;;;;;30.92;14.98;;;;;;;0.49;78.32;99933.78;345178;28;1078;-67
2022/01/07 00:13:38;;;;;;;32.72;15.52;;;;;;;0.49;78.48;99928.66;345089;28;1106;-68
2022/01/07 00:13:50;;;;;;;29.17;14.70;;;;;;;0.50;78.55;99936.34;345234;28;1218;-68
2022/01/07 00:14:03;;;;;;;30.20;14.88;;;;;;;0.47;78.42;99935.47;344833;28;1654;-67
2022/01/07 00:14:15;;;;;;;31.15;15.35;;;;;;;0.48;78.93;99932.91;345037;28;1197;-67
2022/01/07 00:14:27;;;;;;;28.73;15.40;;;;;;;0.50;78.43;99935.50;344888;28;1143;-67
2022/01/07 00:14:39;;;;;;;28.50;14.60;;;;;;;0.49;78.22;99933.78;345070;28;1353;-68
2022/01/07 00:14:51;;;;;;;30.75;14.65;;;;;;;0.50;78.56;99930.38;344036;28;2366;-67
2022/01/07 00:15:05;;;;;;;30.30;14.77;;;;;;;0.53;78.95;99930.44;343654;28;2043;-67
2022/01/07 00:15:17;;;;;;;28.00;15.10;;;;;;;0.57;78.58;99942.41;343677;28;1612;-68
2022/01/07 00:15:29;;;;;;;30.48;14.98;;;;;;;0.60;78.00;99942.44;343679;28;1094;-67
2022/01/07 00:15:42;;;;;;;29.23;13.88;;;;;;;0.60;78.25;99937.31;343785;28;1011;-67
2022/01/07 00:15:54;;;;;;;27.10;13.50;;;;;;;0.58;78.87;99933.88;343805;28;1077;-67
2022/01/07 00:16:10;;;;;;;23.98;14.00;;;;;;;0.62;78.30;99940.75;343628;28;1038;-67
2022/01/07 00:16:23;;;;;;;25.80;15.15;;;;;;;0.61;78.27;99939.06;343512;28;1922;-68
2022/01/07 00:16:35;;;;;;;27.63;14.88;;;;;;;0.62;77.84;99934.78;344194;28;1481;-67
2022/01/07 00:16:47;;;;;;;30.00;14.98;;;;;;;0.62;78.59;99935.63;344867;28;1131;-68
2022/01/07 00:16:59;;;;;;;29.95;15.10;;;;;;;0.64;78.58;99938.22;343971;28;1946;-68
2022/01/07 00:17:11;;;;;;;29.67;15.70;;;;;;;0.66;79.00;99933.97;343604;28;1019;-67
2022/01/07 00:17:23;;;;;;;28.88;15.38;;;;;;;0.68;78.75;99935.72;343581;28;1015;-67
2022/01/07 00:17:35;;;;;;;28.42;15.43;;;;;;;0.67;77.84;99934.00;343452;28;2038;-67
2022/01/07 00:17:48;;;;;;;31.83;15.40;;;;;;;0.59;77.80;99930.50;345016;28;1089;-67
2022/01/07 00:18:00;;;;;;;33.92;15.57;;;;;;;0.57;77.70;99937.28;344735;28;1392;-69
2022/01/07 00:18:12;;;;;;;32.78;15.57;;;;;;;0.53;77.29;99925.31;343674;28;2297;-70
2022/01/07 00:18:24;;;;;;;29.77;15.60;;;;;;;0.50;76.63;99938.03;343753;28;2057;-69
2022/01/07 00:18:40;;;;;;;29.45;15.68;;;;;;;0.49;77.52;99933.78;344489;28;2097;-67
2022/01/07 00:18:52;;;;;;;32.67;17.20;;;;;;;0.45;77.75;99932.03;344274;28;2443;-68
2022/01/07 00:19:04;;;;;;;33.83;17.15;;;;;;;0.40;78.01;99929.38;345048;28;1542;-68
2022/01/07 00:19:17;;;;;;;31.15;15.98;;;;;;;0.40;78.70;99939.63;345004;28;1107;-67
2022/01/07 00:19:29;;;;;;;27.95;14.80;;;;;;;0.41;78.65;99931.13;343931;28;939;-67
2022/01/07 00:19:41;;;;;;;26.98;15.25;;;;;;;0.43;78.22;99931.16;343723;28;1047;-68
2022/01/07 00:19:53;;;;;;;27.55;15.70;;;;;;;0.43;78.85;99928.59;343792;28;1708;-68
2022/01/07 00:20:11;;;;;;;26.95;14.73;;;;;;;0.46;78.56;99931.16;342948;28;1187;-70
2022/01/07 00:20:24;;;;;;;26.67;14.13;;;;;;;0.42;78.44;99926.84;342884;28;2412;-67
2022/01/07 00:20:37;;;;;;;27.10;15.15;;;;;;;0.42;78.59;99931.97;343505;28;1067;-67
2022/01/07 00:20:51;;;;;;;27.73;15.95;;;;;;;0.43;78.73;99928.59;343863;28;1098;-67
2022/01/07 00:21:03;;;;;;;28.70;15.77;;;;;;;0.39;78.64;99925.97;343538;28;1795;-68
2022/01/07 00:21:15;;;;;;;28.20;15.02;;;;;;;0.39;78.93;99931.09;343558;28;1277;-69
2022/01/07 00:21:27;;;;;;;27.33;15.15;;;;;;;0.41;78.56;99925.16;343495;28;1177;-68
2022/01/07 00:21:39;;;;;;;27.63;15.88;;;;;;;0.42;79.32;99924.31;344830;28;1066;-67
2022/01/07 00:21:51;;;;;;;27.30;16.42;;;;;;;0.41;78.43;99920.03;345166;28;1307;-68
2022/01/07 00:22:03;;;;;;;28.38;15.93;;;;;;;0.43;79.06;99926.03;345092;28;1550;-68
2022/01/07 00:22:15;;;;;;;28.85;15.35;;;;;;;0.42;78.29;99926.84;344985;28;1238;-69
2022/01/07 00:22:27;;;;;;;28.63;15.45;;;;;;;0.44;78.19;99930.28;344131;28;2093;-68
2022/01/07 00:22:41;;;;;;;27.15;15.75;;;;;;;0.39;78.54;99927.69;344691;28;1090;-68
2022/01/07 00:22:53;;;;;;;31.42;16.15;;;;;;;0.38;77.97;99920.84;344744;28;834;-68
2022/01/07 00:23:06;;;;;;;34.42;15.38;;;;;;;0.40;78.90;99924.28;344892;28;1996;-68
2022/01/07 00:23:18;;;;;;;30.25;15.15;;;;;;;0.41;78.98;99920.03;345145;28;1270;-68
2022/01/07 00:23:30;;;;;;;28.52;15.23;;;;;;;0.44;78.25;99920.06;344179;28;2001;-68
2022/01/07 00:23:42;;;;;;;29.88;15.70;;;;;;;0.46;78.07;99916.69;345023;28;1580;-68
2022/01/07 00:23:54;;;;;;;31.75;15.60;;;;;;;0.39;79.00;99920.88;345350;28;1164;-67
2022/01/07 00:24:06;;;;;;;29.92;15.13;;;;;;;0.33;79.04;99919.94;343746;28;1075;-67
2022/01/07 00:24:18;;;;;;;29.77;15.60;;;;;;;0.26;78.98;99924.09;343583;28;1005;-67
2022/01/07 00:24:30;;;;;;;27.25;16.13;;;;;;;0.14;79.05;99921.38;343673;28;1086;-67
2022/01/07 00:24:43;;;;;;;27.50;16.17;;;;;;;0.14;79.31;99921.38;343422;28;1598;-69
2022/01/07 00:24:55;;;;;;;27.05;15.52;;;;;;;0.09;79.58;99916.19;344979;28;1252;-68
2022/01/07 00:25:08;;;;;;;29.08;15.38;;;;;;;0.06;78.96;99917.84;343753;28;1108;-67
2022/01/07 00:25:22;;;;;;;29.00;14.75;;;;;;;0.10;79.26;99914.50;343205;28;2524;-68
2022/01/07 00:25:34;;;;;;;27.08;14.43;;;;;;;0.18;78.70;99918.03;344805;28;1355;-68
2022/01/07 00:25:47;;;;;;;26.25;14.48;;;;;;;0.16;79.60;99914.56;344999;28;1007;-67
2022/01/07 00:25:59;;;;;;;30.70;14.55;;;;;;;0.08;79.81;99919.63;344905;28;1267;-67
2022/01/07 00:26:11;;;;;;;32.75;15.52;;;;;;;0.08;79.54;99913.63;345038;28;1079;-67
2022/01/07 00:26:23;;;;;;;32.15;16.40;;;;;;;0.05;79.44;99926.38;344936;28;1193;-67
2022/01/07 00:26:38;;;;;;;30.00;16.50;;;;;;;-0.02;79.94;99922.84;344973;28;1068;-67
2022/01/07 00:26:50;;;;;;;30.83;15.88;;;;;;;-0.06;80.21;99913.41;344007;28;1027;-67
2022/01/07 00:27:02;;;;;;;31.45;16.15;;;;;;;-0.06;80.48;99924.53;344141;28;2152;-67
2022/01/07 00:27:34;;;;;;;33.70;16.65;;;;;;;-0.01;80.17;99922.03;343772;28;1571;-68
2022/01/07 00:27:46;;;;;;;32.78;16.27;;;;;;;0.02;79.72;99913.53;343450;28;2523;-70
2022/01/07 00:27:58;;;;;;;32.90;17.52;;;;;;;0.06;79.60;99913.63;344074;28;1646;-68
2022/01/07 00:28:11;;;;;;;32.92;18.08;;;;;;;0.08;79.09;99918.72;344975;28;1104;-67
2022/01/07 00:28:23;;;;;;;31.67;17.58;;;;;;;0.09;79.38;99917.91;344094;28;2066;-69
2022/01/07 00:28:35;;;;;;;30.40;17.42;;;;;;;0.08;78.51;99916.19;343582;28;1983;-67
2022/01/07 00:28:47;;;;;;;31.40;17.90;;;;;;;0.11;77.99;99911.97;344952;28;1173;-68
2022/01/07 00:28:59;;;;;;;35.60;17.88;;;;;;;0.11;78.12;99918.78;343716;28;2006;-67
2022/01/07 00:29:11;;;;;;;35.63;17.42;;;;;;;0.08;77.84;99911.06;343572;28;1087;-67
2022/01/07 00:29:23;;;;;;;34.15;16.88;;;;;;;0.08;77.71;99911.06;343727;28;1290;-67
2022/01/07 00:29:35;;;;;;;32.97;17.02;;;;;;;0.09;77.09;99911.09;343817;28;1268;-67
2022/01/07 00:29:47;;;;;;;32.70;17.60;;;;;;;0.08;77.11;99913.63;343732;28;1010;-68
2022/01/07 00:30:00;;;;;;;33.83;17.63;;;;;;;0.08;76.91;99913.63;344182;28;1695;-68
2022/01/07 00:30:13;;;;;;;34.67;17.55;;;;;;;0.10;76.82;99909.38;345204;28;1026;-67
2022/01/07 00:30:25;;;;;;;31.73;17.35;;;;;;;0.10;76.98;99914.50;344184;28;2141;-68
2022/01/07 00:30:38;;;;;;;32.92;17.17;;;;;;;0.09;76.79;99917.91;345042;28;1822;-68
2022/01/07 00:30:50;;;;;;;31.95;16.45;;;;;;;0.05;76.97;99911.03;343586;28;2513;-69
2022/01/07 00:31:02;;;;;;;32.72;16.85;;;;;;;0.04;76.92;99912.75;344601;28;1523;-67
2022/01/07 00:31:14;;;;;;;31.02;16.88;;;;;;;0.07;76.48;99914.47;345126;28;1074;-69
2022/01/07 00:31:26;;;;;;;32.30;17.95;;;;;;;0.03;77.23;99913.56;344325;28;1829;-68
2022/01/07 00:31:38;;;;;;;35.05;18.13;;;;;;;0.02;77.30;99913.53;345190;28;1103;-67
2022/01/07 00:31:50;;;;;;;34.33;17.65;;;;;;;0.03;77.91;99912.72;343595;28;1217;-67
2022/01/07 00:32:03;;;;;;;34.78;16.88;;;;;;;0.02;78.22;99913.53;343611;28;1963;-67
2022/01/07 00:32:22;;;;;;;36.80;17.83;;;;;;;0.02;78.65;99909.31;343503;28;1062;-67
2022/01/07 00:32:34;;;;;;;35.83;18.30;;;;;;;0.00;79.22;99910.97;342847;28;2551;-69
2022/01/07 00:32:46;;;;;;;32.33;17.33;;;;;;;-0.06;79.02;99909.19;343672;28;1917;-70
2022/01/07 00:32:59;;;;;;;30.50;15.90;;;;;;;-0.08;79.73;99910.88;343461;28;1473;-67
2022/01/07 00:33:11;;;;;;;33.78;16.63;;;;;;;-0.05;79.50;99910.03;343843;28;1086;-67
2022/01/07 00:33:23;;;;;;;34.67;17.05;;;;;;;-0.02;79.18;99908.41;343374;28;1076;-67
2022/01/07 00:33:35;;;;;;;36.00;16.50;;;;;;;-0.02;79.53;99916.06;343445;28;1104;-67
2022/01/07 00:33:47;;;;;;;32.20;16.27;;;;;;;-0.01;79.14;99911.81;343885;28;1292;-67
2022/01/07 00:33:59;;;;;;;32.35;17.20;;;;;;;0.04;79.62;99909.31;342392;28;1250;-67
2022/01/07 00:34:11;;;;;;;29.92;17.17;;;;;;;0.05;79.46;99905.91;342129;28;1441;-67
2022/01/07 00:34:23;;;;;;;30.98;16.55;;;;;;;0.08;78.84;99911.06;342336;28;1059;-67
2022/01/07 00:34:35;;;;;;;31.65;16.00;;;;;;;0.09;79.37;99912.78;341556;28;2494;-68
2022/01/07 00:34:47;;;;;;;31.02;16.17;;;;;;;0.10;79.20;99911.94;342282;28;1091;-67
2022/01/07 00:34:59;;;;;;;30.85;16.25;;;;;;;0.10;79.76;99911.94;341941;28;1704;-67
2022/01/07 00:35:14;;;;;;;32.35;16.88;;;;;;;0.14;79.44;99909.47;341798;28;1680;-68
2022/01/07 00:35:26;;;;;;;34.10;17.20;;;;;;;0.10;78.90;99907.72;343513;28;1042;-68
2022/01/07 00:35:39;;;;;;;34.85;16.75;;;;;;;0.12;79.24;99917.94;343414;28;1302;-68
2022/01/07 00:35:52;;;;;;;34.05;15.85;;;;;;;0.13;79.32;99905.19;343315;28;1020;-67
2022/01/07 00:36:04;;;;;;;32.15;16.50;;;;;;;0.18;78.61;99912.91;344164;28;1199;-68
2022/01/07 00:36:16;;;;;;;36.08;17.38;;;;;;;0.22;79.18;99907.00;344211;28;2449;-68
2022/01/07 00:36:28;;;;;;;36.15;17.35;;;;;;;0.20;78.51;99911.22;345128;28;1018;-68
2022/01/07 00:36:40;;;;;;;33.33;16.83;;;;;;;0.16;79.61;99910.34;345137;28;1086;-67
2022/01/07 00:36:52;;;;;;;33.58;17.52;;;;;;;0.14;79.00;99914.59;345002;28;1093;-68
2022/01/07 00:37:04;;;;;;;34.35;18.33;;;;;;;0.14;79.61;99912.03;344113;28;2108;-69
2022/01/07 00:37:17;;;;;;;31.65;17.92;;;;;;;0.12;79.35;99907.72;344865;28;1027;-68
2022/01/07 00:37:29;;;;;;;33.76;17.62;;;;;;;0.08;79.64;99906.84;344956;28;1123;-67
2022/01/07 00:37:46;;;;;;;37.85;17.35;;;;;;;0.12;79.76;99907.72;344160;28;2771;-68
2022/01/07 00:37:58;;;;;;;37.03;17.75;;;;;;;0.10;79.61;99909.38;344660;28;2195;-67
2022/01/07 00:38:10;;;;;;;34.35;17.10;;;;;;;0.10;79.48;99899.16;343805;28;1959;-68
2022/01/07 00:38:23;;;;;;;31.80;16.88;;;;;;;0.10;79.88;99909.38;343568;28;1423;-68
2022/01/07 00:38:35;;;;;;;33.53;17.88;;;;;;;0.07;80.10;99910.22;343307;28;2231;-67
2022/01/07 00:38:47;;;;;;;35.33;18.02;;;;;;;0.07;79.58;99910.22;343792;28;2018;-67
2022/01/07 00:38:59;;;;;;;35.08;17.85;;;;;;;0.02;80.21;99906.75;344891;28;1288;-68
2022/01/07 00:39:11;;;;;;;32.85;16.77;;;;;;;-0.02;80.12;99900.72;345408;28;729;-67
2022/01/07 00:39:23;;;;;;;34.65;17.35;;;;;;;-0.02;80.20;99908.41;344982;28;1247;-67
2022/01/07 00:39:35;;;;;;;39.20;18.27;;;;;;;-0.01;79.65;99907.53;345179;28;1118;-67
2022/01/07 00:39:48;;;;;;;37.78;18.15;;;;;;;-0.05;80.25;99905.78;344310;28;2022;-69
2022/01/07 00:40:00;;;;;;;40.53;18.30;;;;;;;-0.07;79.78;99912.56;344961;28;1250;-68
2022/01/07 00:40:18;;;;;;;34.47;17.88;;;;;;;-0.03;80.12;99908.38;345058;28;1050;-67
2022/01/07 00:40:31;;;;;;;37.28;17.70;;;;;;;-0.05;80.02;99905.78;345234;28;1074;-67
2022/01/07 00:40:43;;;;;;;40.30;17.65;;;;;;;-0.08;79.82;99905.75;345192;28;1094;-66
2022/01/07 00:40:55;;;;;;;35.30;16.55;;;;;;;-0.06;79.87;99901.53;344512;28;2186;-67
2022/01/07 00:41:07;;;;;;;32.95;16.73;;;;;;;-0.08;79.03;99905.75;345092;28;1502;-66
2022/01/07 00:41:19;;;;;;;31.85;17.10;;;;;;;-0.06;79.37;99904.06;345140;28;1023;-66
2022/01/07 00:41:31;;;;;;;33.72;17.38;;;;;;;-0.06;79.05;99908.31;344623;28;1432;-67
2022/01/07 00:41:43;;;;;;;35.47;17.10;;;;;;;-0.06;78.67;99908.31;345013;28;1105;-67
2022/01/07 00:41:55;;;;;;;33.95;16.55;;;;;;;-0.06;79.01;99904.06;344910;28;1081;-67
2022/01/07 00:42:07;;;;;;;31.92;16.48;;;;;;;-0.07;78.62;99897.22;343765;28;1079;-67
2022/01/07 00:42:19;;;;;;;29.85;16.42;;;;;;;-0.03;78.69;99900.69;343531;28;1197;-67
2022/01/07 00:42:31;;;;;;;32.42;17.15;;;;;;;-0.01;77.88;99901.56;343977;28;2422;-67
2022/01/07 00:42:49;;;;;;;34.25;16.55;;;;;;;-0.02;77.88;99895.63;345123;28;1061;-66
2022/01/07 00:43:01;;;;;;;32.85;15.85;;;;;;;-0.02;77.49;99895.63;344724;28;1205;-67
2022/01/07 00:43:14;;;;;;;32.20;15.75;;;;;;;-0.06;77.33;99901.53;344199;28;2031;-66
2022/01/07 00:43:26;;;;;;;32.83;15.88;;;;;;;-0.04;77.69;99907.50;343955;28;1698;-67
2022/01/07 00:43:38;;;;;;;34.22;16.17;;;;;;;-0.04;77.15;99896.41;345120;28;1188;-67
2022/01/07 00:43:51;;;;;;;32.75;16.00;;;;;;;-0.02;77.37;99895.63;345108;28;1044;-68
2022/01/07 00:44:03;;;;;;;32.72;15.82;;;;;;;-0.06;76.67;99909.19;344901;28;1576;-67
2022/01/07 00:44:16;;;;;;;28.92;15.88;;;;;;;-0.05;76.39;99899.81;345102;28;1332;-67
2022/01/07 00:44:28;;;;;;;34.28;17.05;;;;;;;-0.08;76.26;99899.75;344779;28;1226;-67
2022/01/07 00:44:40;;;;;;;35.30;16.67;;;;;;;-0.09;76.68;99904.03;344926;28;1051;-66
2022/01/07 00:44:52;;;;;;;32.47;15.90;;;;;;;-0.13;76.61;99906.50;344734;28;1163;-68
2022/01/07 00:45:05;;;;;;;31.50;15.93;;;;;;;-0.13;76.46;99901.41;343683;28;1446;-68
2022/01/07 00:45:22;;;;;;;31.60;16.15;;;;;;;-0.16;76.98;99896.22;343777;28;1986;-67
2022/01/07 00:45:35;;;;;;;31.70;15.63;;;;;;;-0.17;76.28;99900.50;343581;28;1071;-67
2022/01/07 00:45:47;;;;;;;32.85;15.57;;;;;;;-0.17;76.58;99900.50;343725;28;1265;-67
2022/01/07 00:45:59;;;;;;;30.65;15.95;;;;;;;-0.21;75.43;99899.59;343868;28;1208;-67
2022/01/07 00:46:12;;;;;;;30.58;16.40;;;;;;;-0.19;76.29;99901.31;344925;28;1015;-66
2022/01/07 00:46:25;;;;;;;30.40;14.82;;;;;;;-0.21;75.66;99906.41;344918;28;1170;-67
2022/01/07 00:46:37;;;;;;;29.02;14.05;;;;;;;-0.24;76.20;99898.69;345259;28;1255;-66
2022/01/07 00:46:50;;;;;;;30.45;14.45;;;;;;;-0.25;76.16;99904.63;345177;28;1189;-66
2022/01/07 00:47:04;;;;;;;28.98;14.82;;;;;;;-0.30;75.39;99899.47;345053;28;1620;-66
2022/01/07 00:47:16;;;;;;;29.08;14.65;;;;;;;-0.31;75.88;99902.00;344950;28;1085;-68
2022/01/07 00:47:28;;;;;;;29.98;14.85;;;;;;;-0.29;76.02;99895.22;345189;28;1404;-68
2022/01/07 00:47:41;;;;;;;29.33;15.23;;;;;;;-0.32;75.83;99900.25;343585;28;1253;-68
2022/01/07 00:47:54;;;;;;;30.00;14.50;;;;;;;-0.32;75.91;99903.69;343680;28;1015;-67
2022/01/07 00:48:06;;;;;;;30.58;14.35;;;;;;;-0.32;75.70;99902.81;344984;28;1730;-68
2022/01/07 00:48:18;;;;;;;32.47;14.27;;;;;;;-0.31;75.32;99899.44;344844;28;1316;-68
2022/01/07 00:48:33;;;;;;;31.25;15.00;;;;;;;-0.33;75.10;99898.56;344890;28;1035;-66
2022/01/07 00:48:47;;;;;;;28.55;15.18;;;;;;;-0.32;75.17;99900.25;342112;28;2698;-68
2022/01/07 00:48:59;;;;;;;28.52;14.77;;;;;;;-0.34;76.15;99900.25;343317;28;2199;-67
2022/01/07 00:49:12;;;;;;;30.17;14.63;;;;;;;-0.35;76.12;99905.34;343630;28;1043;-67
2022/01/07 00:49:24;;;;;;;30.85;14.52;;;;;;;-0.33;75.77;99903.66;342448;28;1019;-66
2022/01/07 00:49:36;;;;;;;30.02;14.40;;;;;;;-0.34;75.87;99907.91;342165;28;1154;-67
2022/01/07 00:49:48;;;;;;;30.48;14.38;;;;;;;-0.34;76.53;99907.03;343585;28;1212;-68
2022/01/07 00:50:01;;;;;;;31.80;14.43;;;;;;;-0.36;76.66;99893.38;344086;28;1302;-68
2022/01/07 00:50:15;;;;;;;30.42;13.90;;;;;;;-0.41;76.48;99901.84;345117;28;800;-67
2022/01/07 00:50:29;;;;;;;27.85;13.25;;;;;;;-0.43;77.13;99895.84;344593;28;1913;-67
2022/01/07 00:50:41;;;;;;;28.63;13.60;;;;;;;-0.39;76.96;99903.56;343811;28;2381;-68
2022/01/07 00:50:53;;;;;;;27.88;13.85;;;;;;;-0.35;77.92;99901.06;344746;28;1779;-66
2022/01/07 00:51:05;;;;;;;29.05;14.15;;;;;;;-0.34;77.15;99901.94;344990;28;1647;-67
2022/01/07 00:51:17;;;;;;;29.60;13.75;;;;;;;-0.33;77.50;99898.56;344916;28;1181;-67
2022/01/07 00:51:29;;;;;;;28.33;13.43;;;;;;;-0.31;77.64;99902.00;344923;28;1114;-66
2022/01/07 00:51:41;;;;;;;28.63;13.88;;;;;;;-0.34;77.15;99901.94;345145;28;1102;-66
2022/01/07 00:51:54;;;;;;;27.17;14.40;;;;;;;-0.32;77.54;99897.69;344857;28;1204;-67
2022/01/07 00:52:07;;;;;;;26.92;13.68;;;;;;;-0.36;78.24;99903.59;343430;28;1689;-69
2022/01/07 00:52:19;;;;;;;27.42;13.25;;;;;;;-0.32;78.73;99897.69;343503;28;1952;-68
2022/01/07 00:52:32;;;;;;;29.20;13.77;;;;;;;-0.32;79.26;99900.25;344649;28;2158;-69
2022/01/07 00:52:45;;;;;;;30.58;14.60;;;;;;;-0.31;79.21;99891.78;343892;28;1057;-67
2022/01/07 00:52:58;;;;;;;28.75;14.43;;;;;;;-0.28;78.63;99899.47;342473;28;1715;-67
2022/01/07 00:53:10;;;;;;;28.40;13.43;;;;;;;-0.29;79.01;99902.88;343548;28;1024;-67
2022/01/07 00:53:22;;;;;;;30.40;12.93;;;;;;;-0.27;79.01;99898.63;343449;28;1302;-67
2022/01/07 00:53:34;;;;;;;30.38;13.63;;;;;;;-0.25;78.40;99896.97;343514;28;1330;-66
2022/01/07 00:53:51;;;;;;;29.63;13.65;;;;;;;-0.21;78.07;99893.63;343596;28;1338;-66
2022/01/07 00:54:03;;;;;;;24.55;13.18;;;;;;;-0.20;78.95;99895.34;343491;28;1611;-67
2022/01/07 00:54:16;;;;;;;24.17;13.00;;;;;;;-0.20;79.26;99890.25;342898;28;2456;-68
2022/01/07 00:54:28;;;;;;;26.45;12.70;;;;;;;-0.16;78.35;99891.13;341871;28;1057;-67
2022/01/07 00:54:41;;;;;;;28.80;13.30;;;;;;;-0.14;79.60;99887.78;342094;28;1887;-69
2022/01/07 00:54:53;;;;;;;28.13;13.68;;;;;;;-0.16;79.68;99894.56;343664;28;1539;-68
2022/01/07 00:55:06;;;;;;;26.17;13.45;;;;;;;-0.13;78.73;99884.38;343839;28;1747;-69
2022/01/07 00:55:19;;;;;;;23.70;12.73;;;;;;;-0.14;78.92;99885.22;343688;28;1099;-67
2022/01/07 00:55:31;;;;;;;23.88;12.70;;;;;;;-0.12;79.52;99882.66;343290;28;1139;-66
2022/01/07 00:55:44;;;;;;;27.73;13.65;;;;;;;-0.11;79.46;99889.50;343437;28;1286;-67
2022/01/07 00:55:56;;;;;;;31.08;14.02;;;;;;;-0.09;79.26;99888.69;342537;28;1375;-68
2022/01/07 00:56:08;;;;;;;27.85;13.55;;;;;;;-0.06;79.02;99882.75;343522;28;1663;-68
2022/01/07 00:56:20;;;;;;;24.67;13.27;;;;;;;-0.04;79.07;99884.50;341946;28;1044;-67
2022/01/07 00:56:32;;;;;;;26.10;13.88;;;;;;;-0.06;78.86;99882.75;342258;28;1019;-68
2022/01/07 00:56:45;;;;;;;27.95;13.95;;;;;;;-0.10;79.23;99881.88;342260;28;1276;-68
2022/01/07 00:56:57;;;;;;;28.15;13.75;;;;;;;-0.07;79.65;99875.94;343021;28;1780;-69
2022/01/07 00:57:09;;;;;;;30.42;13.90;;;;;;;-0.10;79.66;99887.00;343674;28;1301;-67
2022/01/07 00:57:21;;;;;;;27.38;13.30;;;;;;;-0.14;79.66;99875.00;343740;28;1031;-67
2022/01/07 00:57:33;;;;;;;26.02;13.45;;;;;;;-0.16;80.24;99881.78;343744;28;1100;-67
2022/01/07 00:57:47;;;;;;;26.60;13.82;;;;;;;-0.21;79.81;99878.28;343784;28;1106;-66
2022/01/07 00:57:59;;;;;;;27.50;14.02;;;;;;;-0.26;80.42;99879.94;343308;28;1863;-68
2022/01/07 00:58:11;;;;;;;26.67;13.18;;;;;;;-0.28;80.83;99886.69;343736;28;1011;-67
2022/01/07 00:58:23;;;;;;;26.70;12.75;;;;;;;-0.25;80.27;99886.75;343386;28;2114;-68
2022/01/07 00:58:35;;;;;;;24.67;12.35;;;;;;;-0.20;80.43;99880.03;344512;28;1082;-67
2022/01/07 00:58:47;;;;;;;23.00;12.25;;;;;;;-0.19;80.23;99875.78;344101;28;2429;-67
2022/01/07 00:59:02;;;;;;;22.85;12.35;;;;;;;-0.15;79.93;99880.94;344845;28;2117;-66
2022/01/07 00:59:14;;;;;;;27.14;12.58;;;;;;;-0.16;80.10;99879.22;345066;28;1080;-67
2022/01/07 00:59:26;;;;;;;27.55;12.80;;;;;;;-0.16;79.48;99880.91;344890;28;2534;-66
2022/01/07 00:59:39;;;;;;;26.08;12.98;;;;;;;-0.14;79.81;99877.56;344924;28;1088;-67
2022/01/07 00:59:52;;;;;;;24.95;12.73;;;;;;;-0.11;79.63;99880.13;344889;28;1012;-66
2022/01/07 01:00:08;;;;;;;26.00;12.40;;;;;;;-0.14;79.81;99880.13;344916;28;1902;-66
2022/01/07 01:00:22;;;;;;;27.52;12.23;;;;;;;-0.14;79.73;99875.00;344983;28;1116;-67
2022/01/07 01:00:35;;;;;;;27.02;13.20;;;;;;;-0.16;79.31;99876.69;343877;28;1040;-67